createdAt,value
2022-08-22T00:00:29.828Z,24.14
2022-08-22T00:02:42.499Z,14.07
2022-08-22T00:02:49.713Z,19.02
2022-08-22T00:02:52.478Z,13.97
2022-08-22T00:03:04.029Z,14.01
2022-08-22T00:03:11.735Z,21.56
2022-08-22T00:03:12.196Z,23.72
2022-08-22T00:03:15.629Z,23.44
2022-08-22T00:15:04.970Z,24.73
2022-08-22T00:18:26.739Z,24.83
2022-08-22T00:22:10.898Z,24.93
2022-08-22T00:28:35.971Z,24.63
2022-08-22T00:33:08.871Z,24.91
2022-08-22T00:38:51.132Z,24.87
2022-08-22T00:50:08.951Z,25.00
2022-08-22T01:22:45.754Z,25.78
2022-08-22T01:26:32.243Z,25.70
2022-08-22T01:29:52.830Z,25.71
2022-08-22T01:33:05.782Z,25.36
2022-08-22T01:36:39.837Z,25.16
2022-08-22T01:40:07.517Z,24.95
2022-08-22T01:43:12.009Z,25.17
2022-08-22T01:46:19.547Z,25.35
2022-08-22T01:49:07.809Z,25.51
2022-08-22T01:55:07.513Z,25.57
2022-08-22T01:58:13.835Z,25.69
2022-08-22T02:01:38.449Z,26.11
2022-08-22T02:04:26.626Z,26.33
2022-08-22T02:07:21.428Z,26.45
2022-08-22T02:10:40.276Z,26.36
2022-08-22T02:13:33.968Z,26.68
2022-08-22T02:16:25.371Z,26.89
2022-08-22T02:19:39.681Z,26.81
2022-08-22T02:22:50.489Z,26.76
2022-08-22T02:28:57.914Z,26.59
2022-08-22T02:32:07.414Z,26.60
2022-08-22T02:34:55.812Z,26.31
2022-08-22T02:37:45.543Z,26.25
2022-08-22T02:40:43.964Z,26.14
2022-08-22T02:43:40.513Z,25.71
2022-08-22T02:46:33.977Z,25.93
2022-08-22T02:52:23.632Z,25.68
2022-08-22T02:55:14.464Z,25.70
2022-08-22T02:58:17.435Z,25.69
2022-08-22T03:01:27.561Z,25.79
2022-08-22T03:04:35.580Z,25.87
2022-08-22T03:07:22.171Z,25.98
2022-08-22T03:10:16.895Z,25.98
2022-08-22T03:13:22.280Z,25.90
2022-08-22T03:16:12.941Z,25.91
2022-08-22T03:18:59.977Z,25.94
2022-08-22T03:21:49.248Z,26.07
2022-08-22T03:24:56.846Z,26.01
2022-08-22T03:30:51.480Z,26.13
2022-08-22T03:33:30.058Z,26.32
2022-08-22T03:36:37.059Z,26.43
2022-08-22T03:39:31.289Z,26.67
2022-08-22T03:42:46.911Z,26.76
2022-08-22T03:49:48.860Z,26.74
2022-08-22T03:53:19.287Z,26.74
2022-08-22T03:56:49.551Z,26.86
2022-08-22T04:00:02.502Z,26.75
2022-08-22T04:06:21.370Z,26.45
2022-08-22T04:09:47.622Z,26.49
2022-08-22T04:13:05.525Z,26.31
2022-08-22T04:16:01.141Z,26.39
2022-08-22T04:19:30.433Z,25.96
2022-08-22T04:25:56.035Z,26.56
2022-08-22T04:28:48.172Z,26.23
2022-08-22T04:31:36.171Z,26.11
2022-08-22T04:34:32.679Z,26.40
2022-08-22T04:37:29.660Z,26.50
2022-08-22T04:47:54.157Z,26.45
2022-08-22T04:51:21.067Z,26.03
2022-08-22T04:58:34.956Z,26.70
2022-08-22T05:05:14.253Z,26.78
2022-08-22T05:11:40.188Z,27.21
2022-08-22T05:17:46.225Z,26.94
2022-08-22T05:20:40.511Z,26.95
2022-08-22T05:27:35.543Z,26.98
2022-08-22T05:31:04.891Z,26.59
2022-08-22T05:34:26.160Z,26.10
2022-08-22T05:37:32.162Z,26.14
2022-08-22T05:40:33.594Z,26.07
2022-08-22T05:46:27.275Z,25.64
2022-08-22T05:50:13.903Z,25.68
2022-08-22T05:53:25.038Z,25.14
2022-08-22T06:04:37.935Z,25.63
2022-08-22T06:08:07.202Z,25.45
2022-08-22T06:11:33.772Z,25.11
2022-08-22T06:17:57.752Z,24.89
2022-08-22T06:21:44.426Z,24.88
2022-08-22T06:25:22.554Z,24.82
2022-08-22T06:28:54.955Z,24.90
2022-08-22T06:32:58.847Z,25.06
2022-08-22T06:46:44.296Z,24.86
2022-08-22T06:50:24.118Z,24.83
2022-08-22T06:57:32.907Z,24.67
2022-08-22T07:08:06.178Z,24.66
2022-08-22T07:11:16.928Z,24.42
2022-08-22T07:14:18.628Z,24.39
2022-08-22T07:27:44.383Z,24.31
2022-08-22T07:31:10.755Z,24.33
2022-08-22T07:38:25.869Z,24.34
2022-08-22T07:41:22.560Z,24.33
2022-08-22T07:44:32.631Z,24.29
2022-08-22T07:47:26.775Z,24.31
2022-08-22T07:50:29.474Z,24.10
2022-08-22T07:53:43.791Z,24.36
2022-08-22T07:56:36.273Z,24.33
2022-08-22T07:59:18.906Z,24.43
2022-08-22T08:04:50.093Z,24.08
2022-08-22T08:07:29.239Z,24.34
2022-08-22T08:13:40.827Z,24.11
2022-08-22T08:16:30.896Z,23.92
2022-08-22T08:19:28.364Z,23.76
2022-08-22T08:22:15.012Z,23.63
2022-08-22T08:28:11.998Z,23.32
2022-08-22T08:31:05.417Z,23.21
2022-08-22T08:33:46.721Z,23.09
2022-08-22T08:36:43.721Z,22.99
2022-08-22T08:39:36.691Z,22.95
2022-08-22T08:43:04.734Z,22.87
2022-08-22T08:46:33.635Z,22.69
2022-08-22T08:49:52.615Z,22.53
2022-08-22T08:53:04.924Z,22.40
2022-08-22T08:56:04.928Z,22.15
2022-08-22T08:58:50.970Z,21.92
2022-08-22T09:01:52.004Z,21.81
2022-08-22T09:05:02.771Z,21.64
2022-08-22T09:08:19.174Z,21.57
2022-08-22T09:11:38.661Z,21.44
2022-08-22T09:19:16.941Z,21.11
2022-08-22T09:22:33.446Z,20.99
2022-08-22T09:25:44.833Z,20.87
2022-08-22T09:28:48.026Z,20.78
2022-08-22T09:31:47.691Z,20.64
2022-08-22T09:35:04.907Z,20.60
2022-08-22T09:38:07.502Z,20.45
2022-08-22T09:40:57.824Z,20.33
2022-08-22T09:43:44.214Z,20.02
2022-08-22T09:46:36.697Z,20.10
2022-08-22T09:49:22.362Z,20.04
2022-08-22T09:52:33.291Z,19.89
2022-08-22T09:55:35.396Z,19.80
2022-08-22T09:58:25.243Z,19.63
2022-08-22T10:05:04.356Z,19.36
2022-08-22T10:08:31.600Z,19.29
2022-08-22T10:12:02.033Z,19.21
2022-08-22T10:14:57.707Z,19.17
2022-08-22T10:17:57.885Z,19.16
2022-08-22T10:20:42.515Z,19.08
2022-08-22T10:23:52.924Z,18.79
2022-08-22T10:26:58.246Z,18.92
2022-08-22T10:30:03.880Z,18.94
2022-08-22T10:32:59.192Z,18.82
2022-08-22T10:42:23.306Z,18.77
2022-08-22T10:45:57.569Z,18.72
2022-08-22T10:48:58.792Z,18.68
2022-08-22T10:52:00.032Z,18.60
2022-08-22T10:55:20.983Z,18.54
2022-08-22T10:58:18.795Z,18.50
2022-08-22T11:00:57.178Z,18.42
2022-08-22T11:03:55.560Z,18.41
2022-08-22T11:06:41.644Z,18.29
2022-08-22T11:09:36.890Z,18.28
2022-08-22T11:12:41.634Z,18.26
2022-08-22T11:15:40.263Z,18.24
2022-08-22T11:19:01.898Z,18.18
2022-08-22T11:22:03.721Z,18.24
2022-08-22T11:25:36.247Z,18.22
2022-08-22T11:29:14.610Z,18.21
2022-08-22T11:32:07.832Z,18.28
2022-08-22T11:38:04.445Z,18.20
2022-08-22T11:41:06.385Z,18.16
2022-08-22T11:44:15.079Z,18.23
2022-08-22T11:46:59.174Z,17.99
2022-08-22T11:50:11.503Z,18.26
2022-08-22T11:53:29.153Z,18.19
2022-08-22T11:56:41.556Z,17.95
2022-08-22T11:59:43.404Z,18.21
2022-08-22T12:02:49.500Z,18.27
2022-08-22T12:05:56.013Z,18.23
2022-08-22T12:09:12.410Z,18.22
2022-08-22T12:12:13.197Z,18.23
2022-08-22T12:15:09.327Z,18.27
2022-08-22T12:18:26.247Z,18.19
2022-08-22T12:21:44.612Z,18.15
2022-08-22T12:24:52.346Z,18.10
2022-08-22T12:28:06.317Z,18.06
2022-08-22T12:31:07.250Z,18.07
2022-08-22T12:34:06.479Z,18.06
2022-08-22T12:37:17.808Z,18.07
2022-08-22T12:40:43.753Z,17.85
2022-08-22T12:43:39.959Z,18.03
2022-08-22T12:46:50.819Z,17.98
2022-08-22T12:49:40.851Z,17.90
2022-08-22T12:53:02.126Z,17.82
2022-08-22T12:56:10.268Z,17.86
2022-08-22T12:59:12.378Z,17.92
2022-08-22T13:01:52.514Z,17.86
2022-08-22T13:04:48.488Z,17.91
2022-08-22T13:07:33.603Z,17.72
2022-08-22T13:10:39.796Z,17.83
2022-08-22T13:13:56.269Z,17.96
2022-08-22T13:16:56.950Z,18.03
2022-08-22T13:19:56.527Z,18.07
2022-08-22T13:25:42.884Z,18.06
2022-08-22T13:28:39.792Z,18.05
2022-08-22T13:31:51.044Z,18.03
2022-08-22T13:35:11.392Z,17.98
2022-08-22T13:38:25.550Z,18.07
2022-08-22T13:41:29.525Z,18.02
2022-08-22T13:44:36.388Z,18.08
2022-08-22T13:47:39.620Z,17.90
2022-08-22T13:50:53.461Z,17.90
2022-08-22T13:53:49.848Z,17.95
2022-08-22T13:57:11.050Z,17.89
2022-08-22T14:14:24.882Z,17.93
2022-08-22T14:21:19.462Z,17.78
2022-08-22T14:24:46.677Z,18.12
2022-08-22T14:28:19.234Z,18.06
2022-08-22T14:31:56.783Z,17.88
2022-08-22T14:50:25.249Z,17.99
2022-08-22T14:57:20.629Z,17.83
2022-08-22T15:00:14.012Z,17.84
2022-08-22T15:02:55.819Z,17.69
2022-08-22T15:05:38.069Z,17.94
2022-08-22T15:08:39.421Z,17.78
2022-08-22T15:11:48.791Z,17.83
2022-08-22T15:14:38.717Z,17.92
2022-08-22T15:17:55.651Z,17.88
2022-08-22T15:20:45.425Z,17.66
2022-08-22T15:23:33.542Z,17.74
2022-08-22T15:26:28.780Z,17.82
2022-08-22T15:29:24.800Z,17.83
2022-08-22T15:32:26.701Z,17.82
2022-08-22T15:35:14.780Z,17.86
2022-08-22T15:38:08.938Z,17.80
2022-08-22T15:41:09.791Z,17.77
2022-08-22T15:43:55.174Z,17.76
2022-08-22T15:46:43.864Z,17.88
2022-08-22T15:49:50.318Z,17.86
2022-08-22T15:52:41.260Z,17.82
2022-08-22T15:55:43.213Z,17.80
2022-08-22T16:01:34.356Z,17.87
2022-08-22T16:04:44.627Z,17.78
2022-08-22T16:07:55.956Z,17.83
2022-08-22T16:10:52.048Z,17.87
2022-08-22T16:13:53.036Z,18.00
2022-08-22T16:17:12.198Z,18.08
2022-08-22T16:20:45.359Z,18.18
2022-08-22T16:23:31.970Z,18.26
2022-08-22T16:26:30.897Z,18.31
2022-08-22T16:29:37.679Z,18.03
2022-08-22T16:32:38.302Z,18.49
2022-08-22T16:35:23.181Z,18.49
2022-08-22T16:38:01.398Z,18.50
2022-08-22T16:40:47.844Z,18.57
2022-08-22T16:43:53.614Z,18.60
2022-08-22T16:46:43.292Z,18.61
2022-08-22T16:49:38.981Z,18.48
2022-08-22T16:53:06.846Z,18.60
2022-08-22T16:56:17.600Z,18.57
2022-08-22T16:59:27.951Z,18.53
2022-08-22T17:02:43.215Z,18.57
2022-08-22T17:05:57.945Z,18.47
2022-08-22T17:09:04.318Z,18.43
2022-08-22T17:11:51.291Z,18.35
2022-08-22T17:14:49.127Z,18.15
2022-08-22T17:17:46.907Z,18.07
2022-08-22T17:20:43.415Z,17.74
2022-08-22T17:23:31.729Z,17.66
2022-08-22T17:26:24.527Z,17.55
2022-08-22T17:29:16.039Z,17.64
2022-08-22T17:32:05.252Z,17.60
2022-08-22T17:34:57.089Z,17.88
2022-08-22T17:38:03.476Z,17.88
2022-08-22T17:40:59.581Z,17.81
2022-08-22T17:44:01.816Z,17.80
2022-08-22T17:47:04.190Z,17.86
2022-08-22T17:50:06.603Z,17.77
2022-08-22T17:52:49.126Z,17.65
2022-08-22T17:55:49.389Z,17.56
2022-08-22T17:58:43.884Z,17.39
2022-08-22T18:01:56.399Z,17.27
2022-08-22T18:04:43.343Z,17.08
2022-08-22T18:07:58.393Z,17.44
2022-08-22T18:10:46.475Z,17.35
2022-08-22T18:16:52.442Z,17.56
2022-08-22T18:23:39.241Z,17.01
2022-08-22T18:26:32.967Z,17.05
2022-08-22T18:29:19.171Z,17.11
2022-08-22T18:35:12.940Z,17.23
2022-08-22T18:38:19.755Z,17.23
2022-08-22T18:41:20.612Z,17.25
2022-08-22T18:44:00.945Z,17.18
2022-08-22T18:46:54.724Z,17.13
2022-08-22T18:49:56.722Z,17.10
2022-08-22T18:52:57.621Z,17.03
2022-08-22T18:56:01.702Z,17.06
2022-08-22T18:59:23.481Z,17.06
2022-08-22T19:02:27.638Z,17.04
2022-08-22T19:05:48.799Z,17.22
2022-08-22T19:08:58.390Z,17.35
2022-08-22T19:12:20.019Z,17.47
2022-08-22T19:15:37.153Z,17.53
2022-08-22T19:18:32.473Z,17.60
2022-08-22T19:21:54.349Z,17.61
2022-08-22T19:25:42.312Z,17.61
2022-08-22T19:28:42.524Z,17.60
2022-08-22T19:31:38.805Z,17.57
2022-08-22T19:34:27.196Z,17.61
2022-08-22T19:37:43.350Z,17.60
2022-08-22T19:40:58.246Z,17.58
2022-08-22T19:44:06.067Z,17.68
2022-08-22T19:47:17.505Z,17.72
2022-08-22T19:50:13.127Z,17.21
2022-08-22T19:53:20.272Z,17.55
2022-08-22T19:56:30.847Z,17.50
2022-08-22T19:59:34.468Z,17.58
2022-08-22T20:02:43.783Z,17.63
2022-08-22T20:05:57.041Z,17.71
2022-08-22T20:09:10.330Z,17.71
2022-08-22T20:12:08.486Z,17.60
2022-08-22T20:21:19.950Z,17.55
2022-08-22T20:24:12.279Z,17.57
2022-08-22T20:27:13.386Z,17.59
2022-08-22T20:30:12.071Z,17.41
2022-08-22T20:33:28.749Z,17.53
2022-08-22T20:36:18.514Z,17.42
2022-08-22T20:39:14.444Z,17.67
2022-08-22T20:42:10.732Z,17.73
2022-08-22T20:45:00.384Z,17.81
2022-08-22T20:47:46.432Z,17.89
2022-08-22T20:50:36.207Z,17.76
2022-08-22T20:53:22.426Z,18.10
2022-08-22T20:56:05.643Z,18.10
2022-08-22T20:59:01.428Z,18.25
2022-08-22T21:01:38.456Z,18.27
2022-08-22T21:04:42.636Z,18.46
2022-08-22T21:07:22.805Z,18.52
2022-08-22T21:10:41.899Z,18.53
2022-08-22T21:13:24.863Z,18.58
2022-08-22T21:16:31.474Z,18.58
2022-08-22T21:19:22.959Z,18.58
2022-08-22T21:22:24.986Z,18.45
2022-08-22T21:25:04.021Z,18.21
2022-08-22T21:27:42.888Z,18.53
2022-08-22T21:30:36.832Z,18.65
2022-08-22T21:33:30.684Z,18.66
2022-08-22T21:36:21.655Z,18.63
2022-08-22T21:39:11.930Z,18.65
2022-08-22T21:41:50.571Z,18.54
2022-08-22T21:44:38.219Z,18.62
2022-08-22T21:47:40.715Z,18.61
2022-08-22T21:50:36.541Z,18.52
2022-08-22T21:53:19.933Z,18.38
2022-08-22T21:56:21.760Z,18.55
2022-08-22T21:59:52.309Z,18.54
2022-08-22T22:05:38.168Z,18.53
2022-08-22T22:08:12.989Z,18.53
2022-08-22T22:10:58.019Z,18.17
2022-08-22T22:13:39.399Z,18.44
2022-08-22T22:16:23.480Z,18.48
2022-08-22T22:19:07.979Z,18.52
2022-08-22T22:22:00.447Z,18.44
2022-08-22T22:25:02.791Z,18.38
2022-08-22T22:27:44.512Z,18.30
2022-08-22T22:30:32.465Z,18.18
2022-08-22T22:33:17.525Z,18.13
2022-08-22T22:36:07.664Z,17.90
2022-08-22T22:39:07.692Z,18.13
2022-08-22T22:41:45.052Z,18.16
2022-08-22T22:44:46.448Z,18.30
2022-08-22T22:47:39.927Z,18.18
2022-08-22T22:50:28.009Z,18.39
2022-08-22T22:53:33.692Z,18.49
2022-08-22T22:56:35.030Z,18.56
2022-08-22T22:59:16.238Z,18.73
2022-08-22T23:02:26.544Z,18.47
2022-08-22T23:05:12.948Z,18.59
2022-08-22T23:07:54.137Z,18.52
2022-08-22T23:10:34.323Z,18.44
2022-08-22T23:13:18.667Z,18.36
2022-08-22T23:16:21.739Z,18.37
2022-08-22T23:18:57.761Z,18.28
2022-08-22T23:21:34.705Z,18.13
2022-08-22T23:24:19.292Z,18.26
2022-08-22T23:27:01.343Z,18.22
2022-08-22T23:29:50.042Z,17.84
2022-08-22T23:32:47.024Z,18.05
2022-08-22T23:35:33.287Z,17.99
2022-08-22T23:38:18.308Z,18.00
2022-08-22T23:41:20.308Z,17.97
2022-08-22T23:44:17.384Z,17.92
2022-08-22T23:47:00.660Z,17.87
2022-08-22T23:49:39.035Z,17.86
2022-08-22T23:52:23.152Z,17.87
2022-08-22T23:55:09.236Z,17.88
2022-08-22T23:57:55.885Z,17.89
